Time;durP1;ratioP1;P1;durP2;ratioP2;P2;SDS_P1;SDS_P2;PMS_P1;PMS_P2;Temp;Humidity;BMP_temperature;BMP_pressure;BME280_temperature;BME280_humidity;BME280_pressure;Samples;Min_cycle;Max_cycle;Signal;HPM_P1;HPM_P2
2022/12/15 00:47:54;;;;;;;0.40;0.07;;;-4.70;99.90;;;;;;20032265;29;20119;-58
2022/12/15 01:28:56;;;;;;;1.95;0.10;;;-4.00;99.90;;;;;;20019907;29;20114;-58
2022/12/15 01:38:57;;;;;;;0.20;0.10;;;-4.10;99.90;;;;;;20031608;29;20110;-56
2022/12/15 01:49:19;;;;;;;0.50;0.10;;;-4.40;99.90;;;;;;20016475;29;20067;-56
2022/12/15 01:59:28;;;;;;;0.28;0.10;;;-4.30;99.90;;;;;;20028590;29;20181;-56
2022/12/15 02:09:30;;;;;;;0.30;0.20;;;-4.20;99.90;;;;;;20018226;29;21359;-56
2022/12/15 02:20:02;;;;;;;0.32;0.10;;;-4.00;99.90;;;;;;20025072;29;20145;-57
2022/12/15 02:30:23;;;;;;;0.10;0.03;;;-3.90;99.90;;;;;;20024722;29;20118;-55
2022/12/15 02:40:26;;;;;;;0.30;0.10;;;-3.90;99.90;;;;;;20016639;29;20046;-56
2022/12/15 02:51:03;;;;;;;0.28;0.10;;;-3.90;99.90;;;;;;20022500;29;20098;-57
2022/12/15 03:01:50;;;;;;;0.50;0.20;;;-4.20;99.90;;;;;;20020397;29;20093;-57
2022/12/15 03:11:52;;;;;;;0.30;0.20;;;-4.40;99.90;;;;;;20081569;29;20050;-56
2022/12/15 03:21:56;;;;;;;0.20;0.10;;;-4.40;99.90;;;;;;20082114;29;20058;-55
2022/12/15 03:31:58;;;;;;;0.70;0.20;;;-4.50;99.90;;;;;;20089873;29;20517;-52
2022/12/15 03:41:59;;;;;;;0.82;0.20;;;-4.50;99.90;;;;;;20026848;29;20125;-57
2022/12/15 03:52:01;;;;;;;0.73;0.10;;;-4.60;99.90;;;;;;20014296;29;20042;-58
2022/12/15 04:02:03;;;;;;;0.50;0.30;;;-4.60;99.90;;;;;;20015505;29;20034;-55
2022/12/15 04:12:04;;;;;;;0.77;0.25;;;-4.50;99.90;;;;;;20019074;29;20038;-55
2022/12/15 04:22:06;;;;;;;0.98;0.20;;;-4.60;99.90;;;;;;20007838;29;20073;-57
2022/12/15 05:34:11;;;;;;;1.27;0.20;;;-2.80;99.90;;;;;;20026567;29;20046;-56
2022/12/15 05:44:13;;;;;;;1.60;0.30;;;-2.50;99.90;;;;;;20027515;29;20082;-57
2022/12/15 05:54:17;;;;;;;1.05;0.30;;;-2.40;99.90;;;;;;20015128;29;20038;-58
2022/12/15 06:04:19;;;;;;;1.00;0.40;;;-2.40;99.90;;;;;;20022573;29;20033;-54
2022/12/15 06:14:21;;;;;;;0.90;0.30;;;-2.30;99.90;;;;;;20016262;29;20481;-53
2022/12/15 06:24:23;;;;;;;0.82;0.32;;;-2.20;99.90;;;;;;20022100;29;20565;-59
2022/12/15 06:34:25;;;;;;;2.45;0.50;;;-2.00;99.90;;;;;;20019088;29;20038;-53
2022/12/15 06:44:27;;;;;;;1.50;0.40;;;-2.00;99.90;;;;;;20022065;29;20110;-55
2022/12/15 06:54:29;;;;;;;0.63;0.40;;;-1.80;99.90;;;;;;20007784;29;20030;-53
2022/12/15 07:04:32;;;;;;;0.73;0.45;;;-1.00;99.90;;;;;;20020167;29;20477;-55
2022/12/15 07:14:33;;;;;;;1.48;0.40;;;-0.80;99.90;;;;;;20021383;29;20050;-55
2022/12/15 07:24:35;;;;;;;0.68;0.50;;;-1.20;99.90;;;;;;20013970;29;20470;-59
2022/12/15 07:34:37;;;;;;;0.50;0.30;;;-1.20;99.90;;;;;;20012536;29;20050;-55
2022/12/15 07:44:39;;;;;;;1.30;0.30;;;-1.30;99.90;;;;;;20008563;29;20067;-53
2022/12/15 07:54:41;;;;;;;0.40;0.20;;;-1.30;99.90;;;;;;20012912;29;20091;-56
2022/12/15 08:04:42;;;;;;;1.13;0.65;;;-1.00;99.90;;;;;;20014840;29;20536;-60
2022/12/15 08:14:44;;;;;;;0.73;0.40;;;-0.60;99.90;;;;;;20016821;29;20045;-60
2022/12/15 08:24:47;;;;;;;1.83;0.63;;;-0.20;99.90;;;;;;20000378;29;20174;-60
2022/12/15 08:34:48;;;;;;;0.65;0.30;;;0.60;99.90;;;;;;20016830;29;20051;-55
2022/12/15 08:44:51;;;;;;;1.75;0.40;;;2.30;99.90;;;;;;20012272;29;20554;-54
2022/12/15 08:54:52;;;;;;;0.70;0.30;;;3.40;99.90;;;;;;20022252;29;20034;-53
2022/12/15 09:04:54;;;;;;;0.28;0.17;;;3.90;99.90;;;;;;20024810;29;20042;-58
2022/12/15 09:14:55;;;;;;;0.40;0.20;;;4.60;99.90;;;;;;20022132;29;20041;-57
2022/12/15 09:24:57;;;;;;;0.63;0.10;;;5.00;99.90;;;;;;20020146;29;20058;-56
2022/12/15 09:34:59;;;;;;;0.70;0.20;;;4.70;99.90;;;;;;20024598;29;20477;-57
2022/12/15 09:45:16;;;;;;;0.35;0.20;;;4.80;99.90;;;;;;20025294;29;20042;-56
2022/12/15 09:55:24;;;;;;;0.40;0.28;;;5.50;99.90;;;;;;20018159;29;20045;-58
2022/12/15 10:06:01;;;;;;;0.93;0.50;;;5.20;99.90;;;;;;20020824;29;20091;-57
2022/12/15 10:16:15;;;;;;;0.75;0.50;;;4.90;99.90;;;;;;20021841;29;20042;-54
2022/12/15 10:26:21;;;;;;;1.30;0.70;;;4.40;99.90;;;;;;20019596;29;20034;-55
2022/12/15 10:36:23;;;;;;;1.50;0.80;;;3.80;99.90;;;;;;20019352;29;20086;-54
2022/12/15 10:46:27;;;;;;;1.35;1.00;;;3.30;99.90;;;;;;20014575;29;20042;-52
2022/12/15 10:56:30;;;;;;;0.35;0.20;;;2.80;99.90;;;;;;20021047;29;20049;-52
2022/12/15 11:06:35;;;;;;;2.15;1.13;;;4.10;99.90;;;;;;20014427;29;20042;-56
2022/12/15 11:16:47;;;;;;;2.50;1.40;;;4.80;99.90;;;;;;20019408;29;20094;-56
2022/12/15 11:27:08;;;;;;;2.35;1.42;;;3.60;99.90;;;;;;20005934;29;20046;-62
2022/12/15 11:37:39;;;;;;;2.17;1.40;;;3.40;99.90;;;;;;20013865;29;20045;-57
2022/12/15 11:48:16;;;;;;;2.45;1.42;;;3.20;99.90;;;;;;20012438;29;20097;-61
2022/12/15 11:58:24;;;;;;;2.72;1.40;;;3.00;99.90;;;;;;20017539;29;20037;-57
2022/12/15 12:08:34;;;;;;;1.40;1.08;;;3.20;99.90;;;;;;20004832;29;20397;-61
2022/12/15 12:18:42;;;;;;;1.55;0.90;;;4.00;99.90;;;;;;20013987;29;20098;-61
2022/12/15 12:28:58;;;;;;;2.25;1.48;;;4.80;99.90;;;;;;20015463;29;20049;-57
2022/12/15 12:39:00;;;;;;;2.63;1.50;;;4.40;99.90;;;;;;20014073;29;20581;-58
2022/12/15 12:49:10;;;;;;;1.77;1.30;;;4.10;99.90;;;;;;20017180;29;20393;-62
2022/12/15 12:59:32;;;;;;;1.80;1.25;;;3.90;99.90;;;;;;20013125;29;20099;-57
2022/12/15 13:09:42;;;;;;;2.00;1.70;;;3.90;99.90;;;;;;20009218;29;20434;-56
2022/12/15 13:20:18;;;;;;;1.93;1.40;;;3.50;99.90;;;;;;20008997;29;20083;-58
2022/12/15 13:30:20;;;;;;;2.55;2.00;;;3.30;99.90;;;;;;20083824;29;20049;-56
2022/12/15 13:40:25;;;;;;;1.52;1.00;;;2.80;99.90;;;;;;20080660;29;20441;-61
2022/12/15 13:50:35;;;;;;;3.33;2.67;;;2.50;99.90;;;;;;20095304;29;20049;-59
2022/12/15 14:00:38;;;;;;;2.77;0.87;;;2.30;99.90;;;;;;20053308;29;20397;-58
2022/12/15 14:10:49;;;;;;;4.28;2.78;;;2.10;99.90;;;;;;19939116;29;20426;-56
2022/12/15 14:20:52;;;;;;;4.57;3.17;;;1.80;99.90;;;;;;19946525;29;20061;-59
2022/12/15 14:31:01;;;;;;;2.30;1.92;;;1.50;99.90;;;;;;20001500;29;20110;-61
2022/12/15 14:41:04;;;;;;;2.55;1.80;;;1.30;99.90;;;;;;20020436;29;20111;-58
2022/12/15 14:51:10;;;;;;;1.20;0.63;;;1.10;99.90;;;;;;20011786;29;20555;-58
2022/12/15 15:01:27;;;;;;;0.30;0.20;;;1.00;99.90;;;;;;20022064;29;20050;-59
2022/12/15 15:11:34;;;;;;;0.00;0.00;;;0.90;99.90;;;;;;20003417;29;20040;-59
2022/12/15 15:21:36;;;;;;;0.00;0.00;;;0.90;99.90;;;;;;20017812;29;20038;-59
2022/12/15 15:31:38;;;;;;;3.42;0.00;;;0.90;99.90;;;;;;19968980;29;1312904;-58
2022/12/15 15:41:40;;;;;;;0.00;0.00;;;0.90;99.90;;;;;;20021832;29;20117;-59
2022/12/15 15:51:42;;;;;;;2.30;0.00;;;0.90;99.90;;;;;;20010031;29;20110;-60
2022/12/15 16:01:46;;;;;;;0.00;0.00;;;0.80;99.90;;;;;;20017396;29;20042;-58
2022/12/15 16:11:47;;;;;;;0.00;0.00;;;0.80;99.90;;;;;;20006538;29;20037;-58
2022/12/15 16:21:50;;;;;;;0.00;0.00;;;0.80;99.90;;;;;;20012368;29;20045;-58
2022/12/15 16:31:52;;;;;;;0.00;0.00;;;0.80;99.90;;;;;;20016485;29;20054;-58
2022/12/15 16:41:55;;;;;;;0.17;0.00;;;1.00;99.90;;;;;;20015736;29;20046;-54
2022/12/15 16:51:57;;;;;;;0.00;0.00;;;1.10;99.90;;;;;;20012404;29;20038;-55
2022/12/15 17:01:59;;;;;;;0.00;0.00;;;1.10;99.90;;;;;;19999405;29;20042;-59
2022/12/15 17:12:01;;;;;;;0.00;0.00;;;1.10;99.90;;;;;;20013623;29;20037;-61
2022/12/15 17:22:03;;;;;;;0.00;0.00;;;1.40;99.90;;;;;;20034816;29;20434;-62
2022/12/15 17:32:09;;;;;;;0.20;0.00;;;2.00;99.90;;;;;;20039226;29;20465;-62
2022/12/15 17:42:18;;;;;;;0.00;0.00;;;2.00;99.90;;;;;;20034389;29;20089;-61
2022/12/15 17:52:20;;;;;;;0.57;0.20;;;2.10;99.90;;;;;;20029737;29;20087;-62
2022/12/15 18:02:21;;;;;;;0.00;0.00;;;1.80;99.90;;;;;;20020836;29;20043;-61
2022/12/15 18:12:26;;;;;;;2.45;0.30;;;1.50;99.90;;;;;;20024734;29;20099;-59
2022/12/15 18:22:28;;;;;;;0.08;0.00;;;1.50;99.90;;;;;;20029809;29;20098;-59
2022/12/15 18:32:31;;;;;;;0.00;0.00;;;1.60;99.90;;;;;;20034584;29;20508;-59
2022/12/15 18:42:33;;;;;;;0.05;0.00;;;1.50;99.90;;;;;;20027175;29;20042;-61
2022/12/15 18:52:35;;;;;;;0.00;0.00;;;1.90;99.90;;;;;;20031047;29;20497;-62
2022/12/15 19:02:37;;;;;;;0.00;0.00;;;2.60;99.90;;;;;;20031769;29;20370;-61
2022/12/15 19:12:38;;;;;;;0.28;0.00;;;2.50;99.90;;;;;;20027452;29;20037;-60
2022/12/15 19:22:40;;;;;;;0.00;0.00;;;2.60;99.90;;;;;;20025506;29;20407;-59
2022/12/15 19:32:42;;;;;;;0.60;0.00;;;2.40;99.90;;;;;;20024389;29;20050;-60
2022/12/15 19:42:46;;;;;;;0.10;0.00;;;2.30;99.90;;;;;;20016757;29;20090;-59
2022/12/15 19:52:53;;;;;;;2.90;0.00;;;2.70;99.90;;;;;;20023584;29;20035;-58
2022/12/15 20:02:55;;;;;;;0.80;0.00;;;2.60;99.90;;;;;;20016654;29;20041;-59
2022/12/15 20:12:58;;;;;;;0.08;0.00;;;2.90;99.90;;;;;;20024529;29;20037;-56
2022/12/15 20:23:04;;;;;;;0.00;0.00;;;3.00;99.90;;;;;;20026885;29;20045;-59
2022/12/15 20:33:07;;;;;;;0.00;0.00;;;2.80;99.90;;;;;;20027799;29;20042;-61
2022/12/15 20:43:16;;;;;;;0.00;0.00;;;3.00;99.90;;;;;;20014335;29;20445;-60
2022/12/15 20:53:24;;;;;;;0.13;0.00;;;2.90;99.90;;;;;;20025393;29;20046;-54
2022/12/15 21:03:29;;;;;;;0.00;0.00;;;2.80;99.90;;;;;;20037677;29;20038;-55
2022/12/15 21:13:33;;;;;;;0.85;0.00;;;2.70;99.90;;;;;;20037165;29;20094;-56
2022/12/15 21:23:35;;;;;;;0.00;0.00;;;2.70;99.90;;;;;;20030161;29;20042;-56
2022/12/15 21:33:37;;;;;;;0.00;0.00;;;3.00;99.90;;;;;;20025585;29;20055;-55
2022/12/15 21:43:38;;;;;;;0.00;0.00;;;3.00;99.90;;;;;;20030123;29;20061;-57
2022/12/15 21:53:42;;;;;;;0.08;0.05;;;3.00;99.90;;;;;;20033561;29;20374;-53
2022/12/15 22:03:51;;;;;;;0.00;0.00;;;3.00;99.90;;;;;;20037679;29;20050;-53
2022/12/15 22:13:55;;;;;;;0.00;0.00;;;3.00;99.90;;;;;;20033393;29;20042;-54
2022/12/15 22:23:56;;;;;;;0.52;0.00;;;2.90;99.90;;;;;;20027619;29;20046;-57
2022/12/15 22:33:58;;;;;;;0.00;0.00;;;2.90;99.90;;;;;;20027395;29;20041;-52
2022/12/15 22:44:00;;;;;;;0.00;0.00;;;2.70;99.90;;;;;;20028230;29;20034;-55
2022/12/15 22:54:19;;;;;;;0.00;0.00;;;2.60;99.90;;;;;;20030896;29;20473;-57
2022/12/15 23:04:22;;;;;;;0.00;0.00;;;2.40;99.90;;;;;;20029860;29;20042;-56
2022/12/15 23:24:45;;;;;;;0.00;0.00;;;2.30;99.90;;;;;;20021827;29;20134;-57
2022/12/15 23:34:48;;;;;;;0.00;0.00;;;2.40;99.90;;;;;;20024946;29;20037;-54
2022/12/15 23:44:49;;;;;;;0.10;0.03;;;2.50;99.90;;;;;;20029126;29;20048;-54
2022/12/15 23:54:51;;;;;;;0.10;0.00;;;2.60;99.90;;;;;;20025204;29;20063;-55
